createdAt,value
2018-06-02T00:00:41.356Z,99207.09
2018-06-02T00:03:08.932Z,99204.83
2018-06-02T00:05:36.508Z,99205.16
2018-06-02T00:08:04.169Z,99205.49
2018-06-02T00:10:31.796Z,99217.66
2018-06-02T00:12:59.361Z,99217.36
2018-06-02T00:15:26.974Z,99223.30
2018-06-02T00:17:54.592Z,99219.20
2018-06-02T00:20:22.209Z,99218.45
2018-06-02T00:22:50.075Z,99216.23
2018-06-02T00:25:17.629Z,99209.56
2018-06-02T00:27:45.176Z,99200.47
2018-06-02T00:30:12.735Z,99196.31
2018-06-02T00:32:40.286Z,99196.69
2018-06-02T00:35:07.998Z,99197.95
2018-06-02T00:37:35.832Z,99191.08
2018-06-02T00:40:03.555Z,99193.48
2018-06-02T00:42:31.123Z,99190.00
2018-06-02T00:44:58.703Z,99186.90
2018-06-02T00:47:26.506Z,99178.27
2018-06-02T00:49:54.066Z,99180.31
2018-06-02T00:52:21.612Z,99180.91
2018-06-02T00:55:00.990Z,99182.53
2018-06-02T00:57:28.708Z,99181.12
2018-06-02T00:59:56.433Z,99189.44
2018-06-02T01:02:24.047Z,99187.77
2018-06-02T01:04:51.721Z,99186.44
2018-06-02T01:07:19.272Z,99185.75
2018-06-02T01:09:46.873Z,99191.30
2018-06-02T01:12:14.440Z,99193.47
2018-06-02T01:14:42.068Z,99197.73
2018-06-02T01:17:09.763Z,99192.27
2018-06-02T01:19:37.370Z,99193.58
2018-06-02T01:22:05.100Z,99200.48
2018-06-02T01:24:32.827Z,99204.63
2018-06-02T01:27:00.380Z,99203.91
2018-06-02T01:29:27.941Z,99205.41
2018-06-02T01:31:55.568Z,99204.45
2018-06-02T01:34:23.277Z,99200.98
2018-06-02T01:36:51.106Z,99210.63
2018-06-02T01:39:18.781Z,99210.80
2018-06-02T01:41:46.508Z,99208.11
2018-06-02T01:44:14.063Z,99209.30
2018-06-02T01:46:41.777Z,99200.00
2018-06-02T01:49:09.377Z,99214.68
2018-06-02T01:51:37.005Z,99213.67
2018-06-02T01:54:04.589Z,99203.61
2018-06-02T01:56:32.245Z,99215.64
2018-06-02T01:58:59.805Z,99212.95
2018-06-02T02:01:27.364Z,99211.58
2018-06-02T02:03:54.924Z,99219.16
2018-06-02T02:06:22.475Z,99215.87
2018-06-02T02:08:50.129Z,99217.55
2018-06-02T02:11:17.867Z,99212.39
2018-06-02T02:13:45.528Z,99211.68
2018-06-02T02:16:13.194Z,99212.58
2018-06-02T02:18:40.747Z,99217.22
2018-06-02T02:21:08.421Z,99223.46
2018-06-02T02:23:36.099Z,99226.33
2018-06-02T02:26:03.672Z,99231.34
2018-06-02T02:28:31.232Z,99227.05
2018-06-02T02:30:58.993Z,99228.13
2018-06-02T02:33:26.711Z,99221.19
2018-06-02T02:35:54.432Z,99229.25
2018-06-02T02:38:22.249Z,99232.72
2018-06-02T02:40:49.979Z,99234.87
2018-06-02T02:43:17.547Z,99238.33
2018-06-02T02:45:45.313Z,99236.42
2018-06-02T02:48:13.026Z,99235.83
2018-06-02T02:50:40.599Z,99232.72
2018-06-02T02:53:08.155Z,99231.57
2018-06-02T02:55:35.883Z,99232.53
2018-06-02T02:58:03.502Z,99239.72
2018-06-02T03:00:31.058Z,99236.36
2018-06-02T03:02:58.616Z,99250.39
2018-06-02T03:05:26.286Z,99250.74
2018-06-02T03:07:53.872Z,99242.95
2018-06-02T03:10:21.490Z,99241.72
2018-06-02T03:12:49.201Z,99235.42
2018-06-02T03:15:16.927Z,99233.45
2018-06-02T03:17:44.501Z,99237.81
2018-06-02T03:20:12.161Z,99232.79
2018-06-02T03:22:39.879Z,99239.84
2018-06-02T03:25:07.701Z,99246.08
2018-06-02T03:27:35.284Z,99247.49
2018-06-02T03:30:02.841Z,99255.42
2018-06-02T03:32:30.396Z,99250.93
2018-06-02T03:34:58.018Z,99251.42
2018-06-02T03:37:25.617Z,99251.45
2018-06-02T03:39:53.246Z,99254.08
2018-06-02T03:42:20.929Z,99260.06
2018-06-02T03:44:48.541Z,99259.66
2018-06-02T03:47:16.141Z,99264.84
2018-06-02T03:49:43.705Z,99263.18
2018-06-02T03:52:11.262Z,99267.36
2018-06-02T03:54:38.873Z,99265.49
2018-06-02T03:57:06.480Z,99263.89
2018-06-02T03:59:34.089Z,99268.04
2018-06-02T04:02:01.710Z,99271.80
2018-06-02T04:04:29.327Z,99271.64
2018-06-02T04:06:56.885Z,99271.95
2018-06-02T04:09:24.445Z,99272.12
2018-06-02T04:11:52.134Z,99269.28
2018-06-02T04:14:19.861Z,99280.88
2018-06-02T04:16:47.408Z,99275.34
2018-06-02T04:19:15.084Z,99279.11
2018-06-02T04:21:42.725Z,99274.86
2018-06-02T04:24:10.306Z,99274.77
2018-06-02T04:26:38.133Z,99273.10
2018-06-02T04:29:05.874Z,99276.66
2018-06-02T04:31:33.687Z,99280.73
2018-06-02T04:34:01.240Z,99273.31
2018-06-02T04:36:28.849Z,99278.98
2018-06-02T04:38:56.482Z,99271.95
2018-06-02T04:41:24.088Z,99275.42
2018-06-02T04:43:51.878Z,99275.35
2018-06-02T04:46:19.463Z,99281.87
2018-06-02T04:48:47.070Z,99277.09
2018-06-02T04:51:14.732Z,99273.33
2018-06-02T04:53:42.300Z,99270.78
2018-06-02T04:56:09.861Z,99266.82
2018-06-02T04:58:37.410Z,99260.48
2018-06-02T05:01:04.968Z,99264.50
2018-06-02T05:03:32.687Z,99259.27
2018-06-02T05:06:00.539Z,99266.33
2018-06-02T05:08:28.270Z,99262.41
2018-06-02T05:10:55.825Z,99258.23
2018-06-02T05:13:23.379Z,99259.52
2018-06-02T05:15:51.102Z,99267.36
2018-06-02T05:18:18.728Z,99263.70
2018-06-02T05:20:46.316Z,99260.59
2018-06-02T05:23:13.933Z,99267.89
2018-06-02T05:25:41.492Z,99269.28
2018-06-02T05:28:09.302Z,99268.62
2018-06-02T05:30:37.012Z,99260.32
2018-06-02T05:33:04.730Z,99266.84
2018-06-02T05:35:32.457Z,99267.22
2018-06-02T05:38:00.277Z,99260.99
2018-06-02T05:40:27.947Z,99260.32
2018-06-02T05:42:55.618Z,99256.63
2018-06-02T05:45:23.330Z,99257.88
2018-06-02T05:47:51.053Z,99254.73
2018-06-02T05:50:18.600Z,99251.82
2018-06-02T05:52:46.289Z,99248.36
2018-06-02T05:55:14.105Z,99255.57
2018-06-02T05:57:41.804Z,99254.14
2018-06-02T06:00:09.530Z,99252.09
2018-06-02T06:02:37.096Z,99257.67
2018-06-02T06:05:04.860Z,99260.78
2018-06-02T06:07:32.416Z,99258.06
2018-06-02T06:09:59.974Z,99257.61
2018-06-02T06:12:27.521Z,99261.97
2018-06-02T06:14:55.349Z,99259.05
2018-06-02T06:17:22.912Z,99253.75
2018-06-02T06:19:50.461Z,99254.17
2018-06-02T06:22:18.028Z,99259.45
2018-06-02T06:24:45.719Z,99260.34
2018-06-02T06:27:13.281Z,99259.86
2018-06-02T06:29:40.884Z,99260.53
2018-06-02T06:32:08.444Z,99256.98
2018-06-02T06:34:36.086Z,99255.36
2018-06-02T06:37:03.648Z,99251.95
2018-06-02T06:39:31.252Z,99250.12
2018-06-02T06:41:58.800Z,99249.89
2018-06-02T06:44:26.498Z,99247.02
2018-06-02T06:46:54.058Z,99239.34
2018-06-02T06:49:21.616Z,99246.75
2018-06-02T06:51:49.224Z,99244.92
2018-06-02T06:54:16.925Z,99237.52
2018-06-02T06:56:44.581Z,99245.02
2018-06-02T06:59:12.371Z,99240.88
2018-06-02T07:01:40.189Z,99241.48
2018-06-02T07:04:07.800Z,99243.08
2018-06-02T07:06:35.529Z,99240.11
2018-06-02T07:09:03.171Z,99244.10
2018-06-02T07:11:30.732Z,99239.19
2018-06-02T07:13:58.281Z,99238.19
2018-06-02T07:16:25.849Z,99240.52
2018-06-02T07:18:53.400Z,99247.94
2018-06-02T07:21:21.000Z,99248.18
2018-06-02T07:23:48.651Z,99242.54
2018-06-02T07:26:16.209Z,99247.02
2018-06-02T07:28:43.764Z,99243.83
2018-06-02T07:31:11.321Z,99244.38
2018-06-02T07:33:38.944Z,99247.09
2018-06-02T07:36:06.754Z,99247.34
2018-06-02T07:38:34.417Z,99249.53
2018-06-02T07:41:01.968Z,99247.75
2018-06-02T07:43:29.566Z,99249.02
2018-06-02T07:45:57.313Z,99255.66
2018-06-02T07:48:25.031Z,99252.34
2018-06-02T07:50:52.749Z,99250.66
2018-06-02T07:53:20.300Z,99247.18
2018-06-02T07:55:47.961Z,99246.80
2018-06-02T07:58:15.612Z,99246.02
2018-06-02T08:00:43.162Z,99244.30
2018-06-02T08:03:10.926Z,99248.72
2018-06-02T08:05:38.482Z,99240.72
2018-06-02T08:08:06.174Z,99243.23
2018-06-02T08:10:33.724Z,99240.38
2018-06-02T08:13:01.341Z,99238.70
2018-06-02T08:15:29.131Z,99238.89
2018-06-02T08:17:56.696Z,99227.58
2018-06-02T08:20:24.264Z,99231.34
2018-06-02T08:22:52.084Z,99233.03
2018-06-02T08:25:19.704Z,99231.95
2018-06-02T08:27:47.325Z,99229.77
2018-06-02T08:30:14.968Z,99228.50
2018-06-02T08:32:42.513Z,99227.19
2018-06-02T08:35:10.088Z,99234.53
2018-06-02T08:37:37.791Z,99230.71
2018-06-02T08:40:05.514Z,99235.22
2018-06-02T08:42:33.083Z,99226.85
2018-06-02T08:45:00.738Z,99227.20
2018-06-02T08:47:28.565Z,99221.45
2018-06-02T08:49:56.282Z,99220.17
2018-06-02T08:52:23.994Z,99222.59
2018-06-02T08:54:51.820Z,99220.41
2018-06-02T08:57:19.389Z,99219.74
2018-06-02T08:59:46.952Z,99218.57
2018-06-02T09:02:14.673Z,99222.02
2018-06-02T09:04:42.281Z,99226.97
2018-06-02T09:07:09.826Z,99220.91
2018-06-02T09:09:37.386Z,99220.72
2018-06-02T09:12:05.064Z,99221.06
2018-06-02T09:14:32.763Z,99223.94
2018-06-02T09:17:01.285Z,99219.17
2018-06-02T09:19:28.840Z,99207.25
2018-06-02T09:21:56.468Z,99216.81
2018-06-02T09:24:24.129Z,99214.14
2018-06-02T09:26:51.684Z,99216.08
2018-06-02T09:29:19.475Z,99217.90
2018-06-02T09:31:47.031Z,99209.52
2018-06-02T09:34:14.810Z,99205.62
2018-06-02T09:36:42.356Z,99205.59
2018-06-02T09:39:10.017Z,99206.32
2018-06-02T09:41:37.568Z,99206.64
2018-06-02T09:44:05.144Z,99198.86
2018-06-02T09:46:32.716Z,99197.56
2018-06-02T09:49:00.408Z,99197.28
2018-06-02T09:51:28.137Z,99200.42
2018-06-02T09:53:55.855Z,99202.03
2018-06-02T09:56:23.674Z,99194.88
2018-06-02T09:58:51.279Z,99195.27
2018-06-02T10:01:18.900Z,99193.73
2018-06-02T10:03:46.627Z,99190.02
2018-06-02T10:06:14.339Z,99190.20
2018-06-02T10:08:42.060Z,99192.81
2018-06-02T10:11:09.621Z,99191.26
2018-06-02T10:13:37.228Z,99196.75
2018-06-02T10:16:04.838Z,99195.86
2018-06-02T10:18:32.638Z,99179.59
2018-06-02T10:21:00.434Z,99181.70
2018-06-02T10:23:28.078Z,99180.22
2018-06-02T10:25:55.632Z,99179.00
2018-06-02T10:28:23.300Z,99174.30
2018-06-02T10:30:50.921Z,99181.59
2018-06-02T10:33:18.480Z,99180.09
2018-06-02T10:35:46.040Z,99173.99
2018-06-02T10:38:13.677Z,99173.62
2018-06-02T10:40:41.252Z,99173.62
2018-06-02T10:43:08.909Z,99171.91
2018-06-02T10:45:36.736Z,99178.52
2018-06-02T10:48:04.555Z,99180.25
2018-06-02T10:50:32.153Z,99177.30
2018-06-02T10:52:59.991Z,99167.45
2018-06-02T10:55:27.810Z,99172.58
2018-06-02T10:57:55.523Z,99170.14
2018-06-02T11:00:23.097Z,99164.33
2018-06-02T11:02:50.758Z,99169.98
2018-06-02T11:05:18.433Z,99164.05
2018-06-02T11:07:46.093Z,99161.70
2018-06-02T11:10:13.817Z,99148.05
2018-06-02T11:12:41.629Z,99154.53
2018-06-02T11:15:09.197Z,99150.75
2018-06-02T11:17:36.762Z,99141.02
2018-06-02T11:20:04.361Z,99142.02
2018-06-02T11:22:31.971Z,99135.02
2018-06-02T11:24:59.619Z,99133.95
2018-06-02T11:27:27.177Z,99140.53
2018-06-02T11:29:55.869Z,99131.14
2018-06-02T11:32:23.457Z,99128.58
2018-06-02T11:34:51.025Z,99127.10
2018-06-02T11:37:18.820Z,99127.80
2018-06-02T11:39:46.532Z,99124.95
2018-06-02T11:42:14.109Z,99120.67
2018-06-02T11:44:41.768Z,99115.56
2018-06-02T11:47:09.399Z,99110.03
2018-06-02T11:49:36.966Z,99103.61
2018-06-02T11:52:04.621Z,99107.22
2018-06-02T11:54:32.230Z,99109.09
2018-06-02T11:56:59.853Z,99098.05
2018-06-02T11:59:27.573Z,99101.41
2018-06-02T12:01:55.201Z,99101.80
2018-06-02T12:04:22.770Z,99093.48
2018-06-02T12:06:50.548Z,99089.59
2018-06-02T12:09:18.147Z,99085.68
2018-06-02T12:11:45.766Z,99085.94
2018-06-02T12:14:14.012Z,99080.55
2018-06-02T12:16:41.625Z,99081.36
2018-06-02T12:19:09.228Z,99073.44
2018-06-02T12:21:36.796Z,99068.96
2018-06-02T12:24:04.364Z,99071.02
2018-06-02T12:26:32.187Z,99068.73
2018-06-02T12:28:59.749Z,99067.52
2018-06-02T12:31:27.356Z,99056.92
2018-06-02T12:33:54.950Z,99062.00
2018-06-02T12:36:22.512Z,99053.78
2018-06-02T12:38:50.165Z,99052.84
2018-06-02T12:41:17.740Z,99051.66
2018-06-02T12:43:45.317Z,99052.19
2018-06-02T12:46:12.896Z,99041.69
2018-06-02T12:48:40.508Z,99047.06
2018-06-02T12:51:08.255Z,99041.53
2018-06-02T12:53:35.988Z,99030.12
2018-06-02T12:56:03.791Z,99029.53
2018-06-02T12:58:31.354Z,99028.41
2018-06-02T13:00:58.908Z,99028.58
2018-06-02T13:03:26.549Z,99029.67
2018-06-02T13:05:54.364Z,99031.02
2018-06-02T13:08:22.191Z,99033.59
2018-06-02T13:10:49.752Z,99025.13
2018-06-02T13:13:17.528Z,99023.91
2018-06-02T13:15:45.085Z,99012.75
2018-06-02T13:18:12.688Z,99021.39
2018-06-02T13:20:40.237Z,99016.92
2018-06-02T13:23:07.980Z,99015.98
2018-06-02T13:25:35.717Z,99025.69
2018-06-02T13:28:03.284Z,99010.47
2018-06-02T13:30:31.033Z,99023.82
2018-06-02T13:32:58.597Z,99020.02
2018-06-02T13:35:26.223Z,99024.86
2018-06-02T13:37:53.780Z,99027.30
2018-06-02T13:40:21.417Z,99023.67
2018-06-02T13:42:49.001Z,99016.38
2018-06-02T13:45:16.573Z,99020.97
2018-06-02T13:47:45.150Z,99026.23
2018-06-02T13:50:12.700Z,99025.02
2018-06-02T13:52:40.518Z,99009.52
2018-06-02T13:55:08.139Z,99019.63
2018-06-02T13:57:35.733Z,99015.72
2018-06-02T14:00:03.458Z,99007.50
2018-06-02T14:02:31.182Z,99010.91
2018-06-02T14:04:59.006Z,99005.52
2018-06-02T14:07:26.831Z,99008.05
2018-06-02T14:09:54.538Z,99009.70
2018-06-02T14:12:22.272Z,99013.75
2018-06-02T14:14:50.066Z,99017.50
2018-06-02T14:17:17.697Z,99002.05
2018-06-02T14:19:45.310Z,99007.83
2018-06-02T14:22:13.118Z,99009.58
2018-06-02T14:24:40.957Z,99008.09
2018-06-02T14:27:08.548Z,99004.47
2018-06-02T14:29:36.173Z,99014.95
2018-06-02T14:32:03.724Z,99004.47
2018-06-02T14:34:31.435Z,99001.63
2018-06-02T14:36:58.985Z,98996.67
2018-06-02T14:39:26.670Z,99001.89
2018-06-02T14:41:54.232Z,98994.22
2018-06-02T14:44:21.793Z,98993.02
2018-06-02T14:46:49.356Z,98991.66
2018-06-02T14:49:17.124Z,98995.83
2018-06-02T14:51:44.829Z,98992.20
2018-06-02T14:54:12.397Z,98991.81
2018-06-02T14:56:40.195Z,98983.47
2018-06-02T14:59:07.817Z,98982.91
2018-06-02T15:01:35.629Z,98975.66
2018-06-02T15:04:03.338Z,98979.09
2018-06-02T15:06:30.896Z,98979.58
2018-06-02T15:08:58.783Z,98981.30
2018-06-02T15:11:26.329Z,98968.23
2018-06-02T15:13:53.876Z,98971.22
2018-06-02T15:16:21.443Z,98966.11
2018-06-02T15:18:49.255Z,98965.42
2018-06-02T15:21:16.826Z,98965.00
2018-06-02T15:23:44.405Z,98958.83
2018-06-02T15:26:12.009Z,98950.16
2018-06-02T15:28:39.831Z,98954.34
2018-06-02T15:31:07.485Z,98958.24
2018-06-02T15:33:35.037Z,98956.23
2018-06-02T15:36:02.674Z,98956.08
2018-06-02T15:38:30.302Z,98952.29
2018-06-02T15:40:58.116Z,98956.13
2018-06-02T15:43:25.793Z,98957.81
2018-06-02T15:45:53.453Z,98951.78
2018-06-02T15:48:21.017Z,98945.48
2018-06-02T15:50:48.580Z,98961.05
2018-06-02T15:53:16.408Z,98958.53
2018-06-02T15:55:44.219Z,98966.68
2018-06-02T15:58:11.767Z,98955.52
2018-06-02T16:00:39.391Z,98956.80
2018-06-02T16:03:06.996Z,98956.65
2018-06-02T16:05:34.726Z,98958.06
2018-06-02T16:08:02.519Z,98954.59
2018-06-02T16:10:30.134Z,98961.14
2018-06-02T16:12:57.768Z,98952.28
2018-06-02T16:15:25.395Z,98956.20
2018-06-02T16:17:53.092Z,98955.00
2018-06-02T16:20:20.641Z,98954.44
2018-06-02T16:22:48.271Z,98952.77
2018-06-02T16:25:15.832Z,98951.42
2018-06-02T16:27:43.464Z,98953.93
2018-06-02T16:30:11.117Z,98959.89
2018-06-02T16:32:38.685Z,98954.88
2018-06-02T16:35:06.292Z,98954.42
2018-06-02T16:37:33.933Z,98950.80
2018-06-02T16:40:01.487Z,98945.30
2018-06-02T16:42:29.165Z,98945.61
2018-06-02T16:44:56.877Z,98944.59
2018-06-02T16:47:24.454Z,98939.75
2018-06-02T16:49:52.228Z,98945.03
2018-06-02T16:52:19.836Z,98935.25
2018-06-02T16:54:47.559Z,98939.73
2018-06-02T16:57:15.380Z,98938.00
2018-06-02T16:59:43.087Z,98939.45
2018-06-02T17:02:10.906Z,98943.68
2018-06-02T17:04:38.627Z,98945.73
2018-06-02T17:07:06.197Z,98947.88
2018-06-02T17:09:33.970Z,98941.95
2018-06-02T17:12:01.525Z,98953.45
2018-06-02T17:14:29.072Z,98947.13
2018-06-02T17:16:56.709Z,98949.63
2018-06-02T17:19:24.280Z,98954.79
2018-06-02T17:21:51.850Z,98951.06
2018-06-02T17:24:19.408Z,98955.80
2018-06-02T17:26:47.143Z,98953.09
2018-06-02T17:29:14.896Z,98957.23
2018-06-02T17:31:42.526Z,98951.09
2018-06-02T17:34:10.089Z,98957.14
2018-06-02T17:36:37.759Z,98957.02
2018-06-02T17:39:06.390Z,98955.14
2018-06-02T17:41:33.944Z,98955.59
2018-06-02T17:44:01.825Z,98958.52
2018-06-02T17:46:29.474Z,98965.27
2018-06-02T17:48:57.154Z,98966.92
2018-06-02T17:51:24.786Z,98963.67
2018-06-02T17:53:52.355Z,98967.45
2018-06-02T17:56:20.122Z,98977.31
2018-06-02T17:58:47.703Z,98983.15
2018-06-02T18:01:15.340Z,98980.66
2018-06-02T18:03:42.904Z,98979.42
2018-06-02T18:06:10.475Z,98984.34
2018-06-02T18:08:38.253Z,98981.70
2018-06-02T18:11:05.869Z,98982.59
2018-06-02T18:13:33.473Z,98985.98
2018-06-02T18:16:01.089Z,98984.14
2018-06-02T18:18:28.859Z,98990.06
2018-06-02T18:20:56.479Z,98988.91
2018-06-02T18:23:24.113Z,98981.83
2018-06-02T18:25:51.673Z,98982.58
2018-06-02T18:28:19.228Z,98993.99
2018-06-02T18:30:46.840Z,98989.13
2018-06-02T18:33:14.401Z,98988.00
2018-06-02T18:35:42.104Z,98989.20
2018-06-02T18:38:09.825Z,98988.13
2018-06-02T18:40:37.400Z,98985.89
2018-06-02T18:43:05.060Z,98990.92
2018-06-02T18:45:32.879Z,98999.56
2018-06-02T18:48:00.591Z,98987.67
2018-06-02T18:50:28.413Z,98996.88
2018-06-02T18:52:56.012Z,99001.53
2018-06-02T18:55:23.750Z,99003.63
2018-06-02T18:57:51.305Z,99004.19
2018-06-02T19:00:18.864Z,99002.61
2018-06-02T19:02:46.432Z,99003.84
2018-06-02T19:05:14.207Z,99003.65
2018-06-02T19:07:41.825Z,99011.27
2018-06-02T19:10:09.449Z,99011.52
2018-06-02T19:12:37.018Z,99006.07
2018-06-02T19:15:04.895Z,99004.86
2018-06-02T19:17:32.513Z,99006.99
2018-06-02T19:20:00.322Z,99008.56
2018-06-02T19:22:28.041Z,99012.21
2018-06-02T19:24:55.601Z,99013.08
2018-06-02T19:27:23.249Z,99013.95
2018-06-02T19:29:50.876Z,99016.05
2018-06-02T19:32:18.521Z,99015.88
2018-06-02T19:34:46.085Z,99017.22
2018-06-02T19:37:13.692Z,99016.63
2018-06-02T19:39:41.236Z,99028.78
2018-06-02T19:42:08.986Z,99027.49
2018-06-02T19:44:36.564Z,99028.02
2018-06-02T19:47:04.332Z,99031.99
2018-06-02T19:49:32.049Z,99028.02
2018-06-02T19:51:59.600Z,99035.39
2018-06-02T19:54:27.391Z,99038.39
2018-06-02T19:56:55.000Z,99035.97
2018-06-02T19:59:22.721Z,99038.86
2018-06-02T20:01:50.276Z,99038.67
2018-06-02T20:04:17.957Z,99036.88
2018-06-02T20:06:45.673Z,99035.86
2018-06-02T20:09:13.295Z,99040.25
2018-06-02T20:11:41.192Z,99026.59
2018-06-02T20:14:08.929Z,99031.20
2018-06-02T20:16:36.657Z,99030.30
2018-06-02T20:19:04.289Z,99032.26
2018-06-02T20:21:31.884Z,99035.42
2018-06-02T20:23:59.707Z,99030.52
2018-06-02T20:26:27.446Z,99037.98
2018-06-02T20:28:55.121Z,99035.55
2018-06-02T20:31:22.856Z,99039.94
2018-06-02T20:33:50.418Z,99039.24
2018-06-02T20:36:18.150Z,99035.60
2018-06-02T20:38:45.867Z,99032.55
2018-06-02T20:41:13.441Z,99026.25
2018-06-02T20:43:41.053Z,99033.58
2018-06-02T20:46:08.672Z,99040.40
2018-06-02T20:48:36.221Z,99039.69
2018-06-02T20:51:03.849Z,99042.64
2018-06-02T20:53:31.515Z,99050.08
2018-06-02T20:55:59.245Z,99046.52
2018-06-02T20:58:26.950Z,99047.92
2018-06-02T21:00:54.779Z,99051.27
2018-06-02T21:03:22.496Z,99051.67
2018-06-02T21:05:50.064Z,99046.07
2018-06-02T21:08:17.729Z,99057.24
2018-06-02T21:10:45.293Z,99054.41
2018-06-02T21:13:12.844Z,99058.86
2018-06-02T21:15:40.404Z,99066.38
2018-06-02T21:18:07.960Z,99067.56
2018-06-02T21:20:35.516Z,99067.25
2018-06-02T21:23:03.231Z,99069.77
2018-06-02T21:25:30.789Z,99064.77
2018-06-02T21:27:58.508Z,99058.30
2018-06-02T21:30:26.291Z,99064.61
2018-06-02T21:32:53.909Z,99062.98
2018-06-02T21:35:21.514Z,99065.81
2018-06-02T21:37:49.060Z,99066.78
2018-06-02T21:40:16.768Z,99055.51
2018-06-02T21:42:44.377Z,99060.99
2018-06-02T21:45:11.980Z,99061.91
2018-06-02T21:47:39.613Z,99065.66
2018-06-02T21:50:07.210Z,99058.63
2018-06-02T21:52:34.764Z,99058.28
2018-06-02T21:55:02.320Z,99050.45
2018-06-02T21:57:29.864Z,99052.15
2018-06-02T21:59:57.497Z,99054.26
2018-06-02T22:02:25.052Z,99048.82
2018-06-02T22:04:52.943Z,99038.47
2018-06-02T22:07:20.549Z,99038.52
2018-06-02T22:09:48.281Z,99040.14
2018-06-02T22:12:15.997Z,99027.70
2018-06-02T22:14:43.616Z,99033.57
2018-06-02T22:17:11.329Z,99028.92
2018-06-02T22:19:39.153Z,99020.06
2018-06-02T22:22:06.821Z,99017.42
2018-06-02T22:24:34.489Z,99021.34
2018-06-02T22:27:02.106Z,99020.55
2018-06-02T22:29:29.817Z,99014.17
2018-06-02T22:31:57.368Z,99012.83
2018-06-02T22:34:24.927Z,99011.58
2018-06-02T22:36:52.627Z,99014.96
2018-06-02T22:39:20.248Z,99008.14
2018-06-02T22:41:47.908Z,99005.72
2018-06-02T22:44:15.461Z,99008.89
2018-06-02T22:46:43.029Z,99008.09
2018-06-02T22:49:10.584Z,99001.59
2018-06-02T22:51:50.034Z,99007.50
2018-06-02T22:54:17.947Z,99003.17
2018-06-02T22:56:45.632Z,98998.15
2018-06-02T22:59:13.256Z,99000.30
2018-06-02T23:01:41.079Z,98999.14
2018-06-02T23:04:08.709Z,99004.66
2018-06-02T23:06:36.539Z,98993.89
2018-06-02T23:09:04.228Z,99000.23
2018-06-02T23:11:31.873Z,98999.30
2018-06-02T23:13:59.488Z,99002.47
2018-06-02T23:16:27.037Z,98995.37
2018-06-02T23:18:54.590Z,98995.95
2018-06-02T23:21:22.150Z,98991.39
2018-06-02T23:23:49.855Z,98992.70
2018-06-02T23:26:17.485Z,98996.58
2018-06-02T23:28:45.036Z,99006.38
2018-06-02T23:31:12.809Z,99000.73
2018-06-02T23:33:40.527Z,98992.70
2018-06-02T23:36:08.087Z,98996.17
2018-06-02T23:38:35.661Z,98987.13
2018-06-02T23:41:03.212Z,98980.05
2018-06-02T23:43:31.009Z,98978.62
2018-06-02T23:45:58.574Z,98976.45
2018-06-02T23:48:26.444Z,98977.80
2018-06-02T23:50:54.163Z,98979.97
2018-06-02T23:53:21.785Z,98979.33
2018-06-02T23:55:49.412Z,98971.25
2018-06-02T23:58:16.976Z,98980.97
